sensor_id;sensor_type;location;lat;lon;timestamp;temperature;humidity
80779;SHT30;70170;47.856;10.956;2023-08-31T00:02:10;9.78;98.76
80779;SHT30;70170;47.856;10.956;2023-08-31T00:04:35;9.99;98.08
80779;SHT30;70170;47.856;10.956;2023-08-31T00:07:01;10.09;97.73
80779;SHT30;70170;47.856;10.956;2023-08-31T00:09:26;9.92;98.01
80779;SHT30;70170;47.856;10.956;2023-08-31T00:11:52;9.89;98.44
80779;SHT30;70170;47.856;10.956;2023-08-31T00:14:17;9.84;98.62
80779;SHT30;70170;47.856;10.956;2023-08-31T00:16:43;9.89;98.63
80779;SHT30;70170;47.856;10.956;2023-08-31T00:19:10;9.75;98.79
80779;SHT30;70170;47.856;10.956;2023-08-31T00:21:36;9.73;98.97
80779;SHT30;70170;47.856;10.956;2023-08-31T00:24:01;9.74;98.95
80779;SHT30;70170;47.856;10.956;2023-08-31T00:26:27;9.78;98.88
80779;SHT30;70170;47.856;10.956;2023-08-31T00:28:52;9.81;98.78
80779;SHT30;70170;47.856;10.956;2023-08-31T00:31:18;9.82;98.60
80779;SHT30;70170;47.856;10.956;2023-08-31T00:33:44;9.88;98.50
80779;SHT30;70170;47.856;10.956;2023-08-31T00:36:09;9.94;98.18
80779;SHT30;70170;47.856;10.956;2023-08-31T00:38:34;9.95;97.93
80779;SHT30;70170;47.856;10.956;2023-08-31T00:41:01;9.94;97.81
80779;SHT30;70170;47.856;10.956;2023-08-31T00:43:27;10.02;97.56
80779;SHT30;70170;47.856;10.956;2023-08-31T00:45:56;10.12;97.06
80779;SHT30;70170;47.856;10.956;2023-08-31T00:48:23;10.19;96.97
80779;SHT30;70170;47.856;10.956;2023-08-31T00:50:50;10.42;96.21
80779;SHT30;70170;47.856;10.956;2023-08-31T00:53:16;10.47;96.23
80779;SHT30;70170;47.856;10.956;2023-08-31T00:55:44;10.54;96.15
80779;SHT30;70170;47.856;10.956;2023-08-31T00:58:10;10.53;96.09
80779;SHT30;70170;47.856;10.956;2023-08-31T01:00:53;10.60;95.63
80779;SHT30;70170;47.856;10.956;2023-08-31T01:03:35;10.53;95.73
80779;SHT30;70170;47.856;10.956;2023-08-31T01:06:07;10.51;95.55
80779;SHT30;70170;47.856;10.956;2023-08-31T01:08:50;10.59;95.47
80779;SHT30;70170;47.856;10.956;2023-08-31T01:13:57;10.47;95.68
80779;SHT30;70170;47.856;10.956;2023-08-31T01:16:26;10.40;96.02
80779;SHT30;70170;47.856;10.956;2023-08-31T01:18:52;10.32;96.19
80779;SHT30;70170;47.856;10.956;2023-08-31T01:21:27;10.33;96.33
80779;SHT30;70170;47.856;10.956;2023-08-31T01:23:56;10.30;96.51
80779;SHT30;70170;47.856;10.956;2023-08-31T01:26:23;10.36;96.95
80779;SHT30;70170;47.856;10.956;2023-08-31T01:28:50;10.46;96.59
80779;SHT30;70170;47.856;10.956;2023-08-31T01:31:16;10.50;96.45
80779;SHT30;70170;47.856;10.956;2023-08-31T01:33:41;10.56;96.35
80779;SHT30;70170;47.856;10.956;2023-08-31T01:36:14;10.59;96.39
80779;SHT30;70170;47.856;10.956;2023-08-31T01:38:42;10.65;96.19
80779;SHT30;70170;47.856;10.956;2023-08-31T01:41:13;10.71;96.09
80779;SHT30;70170;47.856;10.956;2023-08-31T01:43:40;10.75;95.83
80779;SHT30;70170;47.856;10.956;2023-08-31T01:46:07;10.80;95.65
80779;SHT30;70170;47.856;10.956;2023-08-31T01:48:38;10.81;95.59
80779;SHT30;70170;47.856;10.956;2023-08-31T01:51:03;10.84;95.53
80779;SHT30;70170;47.856;10.956;2023-08-31T01:53:29;10.88;95.37
80779;SHT30;70170;47.856;10.956;2023-08-31T01:55:55;10.98;95.36
80779;SHT30;70170;47.856;10.956;2023-08-31T01:58:20;10.95;95.06
80779;SHT30;70170;47.856;10.956;2023-08-31T02:00:48;10.97;95.17
80779;SHT30;70170;47.856;10.956;2023-08-31T02:03:13;10.99;95.29
80779;SHT30;70170;47.856;10.956;2023-08-31T02:05:38;11.04;95.16
80779;SHT30;70170;47.856;10.956;2023-08-31T02:08:04;10.99;95.67
80779;SHT30;70170;47.856;10.956;2023-08-31T02:10:29;10.97;95.76
80779;SHT30;70170;47.856;10.956;2023-08-31T02:12:55;11.12;95.10
80779;SHT30;70170;47.856;10.956;2023-08-31T02:15:20;11.19;94.93
80779;SHT30;70170;47.856;10.956;2023-08-31T02:17:45;11.23;94.84
80779;SHT30;70170;47.856;10.956;2023-08-31T02:20:11;11.42;94.10
80779;SHT30;70170;47.856;10.956;2023-08-31T02:22:36;11.50;94.07
80779;SHT30;70170;47.856;10.956;2023-08-31T02:25:02;11.52;93.75
80779;SHT30;70170;47.856;10.956;2023-08-31T02:27:28;11.49;94.40
80779;SHT30;70170;47.856;10.956;2023-08-31T02:29:53;11.46;94.46
80779;SHT30;70170;47.856;10.956;2023-08-31T02:32:19;11.47;94.76
80779;SHT30;70170;47.856;10.956;2023-08-31T02:34:44;11.39;95.05
80779;SHT30;70170;47.856;10.956;2023-08-31T02:37:10;11.46;94.97
80779;SHT30;70170;47.856;10.956;2023-08-31T02:39:35;11.43;95.19
80779;SHT30;70170;47.856;10.956;2023-08-31T02:42:01;11.40;95.62
80779;SHT30;70170;47.856;10.956;2023-08-31T02:44:26;11.42;95.44
80779;SHT30;70170;47.856;10.956;2023-08-31T02:46:51;11.39;96.12
80779;SHT30;70170;47.856;10.956;2023-08-31T02:49:17;11.25;97.48
80779;SHT30;70170;47.856;10.956;2023-08-31T02:51:42;11.19;98.29
80779;SHT30;70170;47.856;10.956;2023-08-31T02:54:07;11.16;98.86
80779;SHT30;70170;47.856;10.956;2023-08-31T02:56:33;11.11;99.94
80779;SHT30;70170;47.856;10.956;2023-08-31T02:58:58;11.11;99.79
80779;SHT30;70170;47.856;10.956;2023-08-31T03:01:23;11.04;99.99
80779;SHT30;70170;47.856;10.956;2023-08-31T03:03:49;10.97;99.99
80779;SHT30;70170;47.856;10.956;2023-08-31T03:06:15;10.95;99.99
80779;SHT30;70170;47.856;10.956;2023-08-31T03:08:40;10.91;99.99
80779;SHT30;70170;47.856;10.956;2023-08-31T03:11:06;10.84;99.99
80779;SHT30;70170;47.856;10.956;2023-08-31T03:13:32;10.80;99.99
80779;SHT30;70170;47.856;10.956;2023-08-31T03:15:58;10.75;99.99
80779;SHT30;70170;47.856;10.956;2023-08-31T03:18:24;10.71;99.99
80779;SHT30;70170;47.856;10.956;2023-08-31T03:20:49;10.71;99.99
80779;SHT30;70170;47.856;10.956;2023-08-31T03:23:14;10.67;99.99
80779;SHT30;70170;47.856;10.956;2023-08-31T03:25:40;10.65;99.99
80779;SHT30;70170;47.856;10.956;2023-08-31T03:28:06;10.67;99.99
80779;SHT30;70170;47.856;10.956;2023-08-31T03:30:31;10.65;99.99
80779;SHT30;70170;47.856;10.956;2023-08-31T03:32:56;10.68;99.99
80779;SHT30;70170;47.856;10.956;2023-08-31T03:35:22;10.68;99.99
80779;SHT30;70170;47.856;10.956;2023-08-31T03:37:54;10.71;99.99
80779;SHT30;70170;47.856;10.956;2023-08-31T03:40:20;10.71;99.99
80779;SHT30;70170;47.856;10.956;2023-08-31T03:42:45;10.70;99.99
80779;SHT30;70170;47.856;10.956;2023-08-31T03:45:11;10.68;99.99
80779;SHT30;70170;47.856;10.956;2023-08-31T03:47:37;10.65;99.99
80779;SHT30;70170;47.856;10.956;2023-08-31T03:50:02;10.68;99.99
80779;SHT30;70170;47.856;10.956;2023-08-31T03:52:28;10.68;99.99
80779;SHT30;70170;47.856;10.956;2023-08-31T03:54:53;10.67;99.99
80779;SHT30;70170;47.856;10.956;2023-08-31T03:57:19;10.67;99.99
80779;SHT30;70170;47.856;10.956;2023-08-31T03:59:45;10.68;99.99
80779;SHT30;70170;47.856;10.956;2023-08-31T04:02:10;10.65;99.99
80779;SHT30;70170;47.856;10.956;2023-08-31T04:04:35;10.67;99.99
80779;SHT30;70170;47.856;10.956;2023-08-31T04:07:01;10.67;99.99
80779;SHT30;70170;47.856;10.956;2023-08-31T04:09:26;10.63;99.99
80779;SHT30;70170;47.856;10.956;2023-08-31T04:11:51;10.65;99.99
80779;SHT30;70170;47.856;10.956;2023-08-31T04:14:17;10.65;99.99
80779;SHT30;70170;47.856;10.956;2023-08-31T04:16:43;10.60;99.99
80779;SHT30;70170;47.856;10.956;2023-08-31T04:19:09;10.60;99.99
80779;SHT30;70170;47.856;10.956;2023-08-31T04:21:34;10.64;99.99
80779;SHT30;70170;47.856;10.956;2023-08-31T04:23:59;10.63;99.99
80779;SHT30;70170;47.856;10.956;2023-08-31T04:26:25;10.65;99.99
80779;SHT30;70170;47.856;10.956;2023-08-31T04:28:50;10.74;99.99
80779;SHT30;70170;47.856;10.956;2023-08-31T04:31:16;10.75;99.99
80779;SHT30;70170;47.856;10.956;2023-08-31T04:33:41;10.75;99.99
80779;SHT30;70170;47.856;10.956;2023-08-31T04:36:06;10.75;99.99
80779;SHT30;70170;47.856;10.956;2023-08-31T04:38:33;10.78;99.99
80779;SHT30;70170;47.856;10.956;2023-08-31T04:40:59;10.78;99.99
80779;SHT30;70170;47.856;10.956;2023-08-31T04:43:25;10.80;99.99
80779;SHT30;70170;47.856;10.956;2023-08-31T04:45:54;10.80;99.99
80779;SHT30;70170;47.856;10.956;2023-08-31T04:48:19;10.80;99.99
80779;SHT30;70170;47.856;10.956;2023-08-31T04:50:44;10.87;99.99
80779;SHT30;70170;47.856;10.956;2023-08-31T04:53:10;10.88;99.99
80779;SHT30;70170;47.856;10.956;2023-08-31T04:55:35;10.91;99.99
80779;SHT30;70170;47.856;10.956;2023-08-31T04:58:01;10.91;99.99
80779;SHT30;70170;47.856;10.956;2023-08-31T05:00:26;10.95;99.99
80779;SHT30;70170;47.856;10.956;2023-08-31T05:02:51;10.97;99.99
80779;SHT30;70170;47.856;10.956;2023-08-31T05:05:16;10.99;99.99
80779;SHT30;70170;47.856;10.956;2023-08-31T05:07:43;10.99;99.99
80779;SHT30;70170;47.856;10.956;2023-08-31T05:10:09;10.95;99.99
80779;SHT30;70170;47.856;10.956;2023-08-31T05:12:35;10.89;99.99
80779;SHT30;70170;47.856;10.956;2023-08-31T05:15:00;10.92;99.99
80779;SHT30;70170;47.856;10.956;2023-08-31T05:17:25;10.91;99.99
80779;SHT30;70170;47.856;10.956;2023-08-31T05:19:50;10.91;99.99
80779;SHT30;70170;47.856;10.956;2023-08-31T05:22:16;10.84;99.99
80779;SHT30;70170;47.856;10.956;2023-08-31T05:24:42;10.88;99.99
80779;SHT30;70170;47.856;10.956;2023-08-31T05:27:07;10.89;99.99
80779;SHT30;70170;47.856;10.956;2023-08-31T05:29:33;10.87;99.99
80779;SHT30;70170;47.856;10.956;2023-08-31T05:31:58;10.89;99.99
80779;SHT30;70170;47.856;10.956;2023-08-31T05:34:24;10.89;99.99
80779;SHT30;70170;47.856;10.956;2023-08-31T05:36:50;10.98;99.99
80779;SHT30;70170;47.856;10.956;2023-08-31T05:39:15;10.99;99.99
80779;SHT30;70170;47.856;10.956;2023-08-31T05:41:43;10.95;99.99
80779;SHT30;70170;47.856;10.956;2023-08-31T05:44:09;10.95;99.99
80779;SHT30;70170;47.856;10.956;2023-08-31T05:46:35;10.97;99.99
80779;SHT30;70170;47.856;10.956;2023-08-31T05:49:00;10.98;99.99
80779;SHT30;70170;47.856;10.956;2023-08-31T05:51:25;10.97;99.99
80779;SHT30;70170;47.856;10.956;2023-08-31T05:53:51;11.04;99.99
80779;SHT30;70170;47.856;10.956;2023-08-31T05:56:18;11.12;99.99
80779;SHT30;70170;47.856;10.956;2023-08-31T05:58:44;11.16;99.99
80779;SHT30;70170;47.856;10.956;2023-08-31T06:01:09;11.20;99.99
80779;SHT30;70170;47.856;10.956;2023-08-31T06:03:34;11.25;99.99
80779;SHT30;70170;47.856;10.956;2023-08-31T06:06:01;11.29;99.99
80779;SHT30;70170;47.856;10.956;2023-08-31T06:08:27;11.29;99.99
80779;SHT30;70170;47.856;10.956;2023-08-31T06:10:52;11.20;99.99
80779;SHT30;70170;47.856;10.956;2023-08-31T06:13:18;11.23;99.99
80779;SHT30;70170;47.856;10.956;2023-08-31T06:15:43;11.19;99.99
80779;SHT30;70170;47.856;10.956;2023-08-31T06:18:10;11.18;99.99
80779;SHT30;70170;47.856;10.956;2023-08-31T06:20:35;11.15;99.99
80779;SHT30;70170;47.856;10.956;2023-08-31T06:23:01;11.16;99.99
80779;SHT30;70170;47.856;10.956;2023-08-31T06:25:27;11.18;99.99
80779;SHT30;70170;47.856;10.956;2023-08-31T06:27:53;11.23;99.99
80779;SHT30;70170;47.856;10.956;2023-08-31T06:30:18;11.29;99.99
80779;SHT30;70170;47.856;10.956;2023-08-31T06:32:44;11.33;99.99
80779;SHT30;70170;47.856;10.956;2023-08-31T06:35:13;11.36;99.99
80779;SHT30;70170;47.856;10.956;2023-08-31T06:37:40;11.44;99.99
80779;SHT30;70170;47.856;10.956;2023-08-31T06:40:06;11.50;99.99
80779;SHT30;70170;47.856;10.956;2023-08-31T06:42:34;11.54;99.99
80779;SHT30;70170;47.856;10.956;2023-08-31T06:44:59;11.52;99.99
80779;SHT30;70170;47.856;10.956;2023-08-31T06:47:24;11.47;99.99
80779;SHT30;70170;47.856;10.956;2023-08-31T06:49:50;11.47;99.99
80779;SHT30;70170;47.856;10.956;2023-08-31T06:52:16;11.50;99.99
80779;SHT30;70170;47.856;10.956;2023-08-31T06:54:41;11.46;99.99
80779;SHT30;70170;47.856;10.956;2023-08-31T06:57:07;11.47;99.99
80779;SHT30;70170;47.856;10.956;2023-08-31T06:59:32;11.53;99.99
80779;SHT30;70170;47.856;10.956;2023-08-31T07:01:58;11.64;99.99
80779;SHT30;70170;47.856;10.956;2023-08-31T07:04:23;11.66;99.99
80779;SHT30;70170;47.856;10.956;2023-08-31T07:06:48;11.67;99.99
80779;SHT30;70170;47.856;10.956;2023-08-31T07:09:13;11.74;99.99
80779;SHT30;70170;47.856;10.956;2023-08-31T07:11:39;11.74;99.99
80779;SHT30;70170;47.856;10.956;2023-08-31T07:14:04;11.75;99.99
80779;SHT30;70170;47.856;10.956;2023-08-31T07:16:29;11.81;99.99
80779;SHT30;70170;47.856;10.956;2023-08-31T07:18:55;11.88;99.99
80779;SHT30;70170;47.856;10.956;2023-08-31T07:21:20;12.01;99.99
80779;SHT30;70170;47.856;10.956;2023-08-31T07:23:45;12.15;99.99
80779;SHT30;70170;47.856;10.956;2023-08-31T07:26:10;12.29;99.99
80779;SHT30;70170;47.856;10.956;2023-08-31T07:28:36;12.40;99.99
80779;SHT30;70170;47.856;10.956;2023-08-31T07:31:02;12.47;99.99
80779;SHT30;70170;47.856;10.956;2023-08-31T07:33:29;12.57;99.99
80779;SHT30;70170;47.856;10.956;2023-08-31T07:35:56;12.70;99.89
80779;SHT30;70170;47.856;10.956;2023-08-31T07:38:21;12.77;99.80
80779;SHT30;70170;47.856;10.956;2023-08-31T07:40:46;12.84;99.53
80779;SHT30;70170;47.856;10.956;2023-08-31T07:43:12;13.11;99.36
80779;SHT30;70170;47.856;10.956;2023-08-31T07:45:37;13.26;99.27
80779;SHT30;70170;47.856;10.956;2023-08-31T07:48:02;13.42;98.01
80779;SHT30;70170;47.856;10.956;2023-08-31T07:50:28;13.42;97.20
80779;SHT30;70170;47.856;10.956;2023-08-31T07:52:53;13.50;96.75
80779;SHT30;70170;47.856;10.956;2023-08-31T07:55:18;13.66;95.75
80779;SHT30;70170;47.856;10.956;2023-08-31T07:57:44;13.84;95.32
80779;SHT30;70170;47.856;10.956;2023-08-31T08:00:09;13.85;94.17
80779;SHT30;70170;47.856;10.956;2023-08-31T08:02:35;13.73;94.86
80779;SHT30;70170;47.856;10.956;2023-08-31T08:05:00;13.69;93.93
80779;SHT30;70170;47.856;10.956;2023-08-31T08:07:25;13.56;94.24
80779;SHT30;70170;47.856;10.956;2023-08-31T08:09:50;13.69;95.35
80779;SHT30;70170;47.856;10.956;2023-08-31T08:12:16;13.69;95.42
80779;SHT30;70170;47.856;10.956;2023-08-31T08:14:41;13.69;96.23
80779;SHT30;70170;47.856;10.956;2023-08-31T08:17:06;13.60;95.83
80779;SHT30;70170;47.856;10.956;2023-08-31T08:19:32;13.54;95.82
80779;SHT30;70170;47.856;10.956;2023-08-31T08:21:57;13.66;96.02
80779;SHT30;70170;47.856;10.956;2023-08-31T08:24:22;13.71;95.76
80779;SHT30;70170;47.856;10.956;2023-08-31T08:26:47;13.87;94.68
80779;SHT30;70170;47.856;10.956;2023-08-31T08:29:13;13.82;93.72
80779;SHT30;70170;47.856;10.956;2023-08-31T08:31:38;14.07;93.17
80779;SHT30;70170;47.856;10.956;2023-08-31T08:34:03;14.33;92.77
80779;SHT30;70170;47.856;10.956;2023-08-31T08:36:29;14.71;90.87
80779;SHT30;70170;47.856;10.956;2023-08-31T08:38:54;15.01;90.69
80779;SHT30;70170;47.856;10.956;2023-08-31T08:41:23;15.09;89.73
80779;SHT30;70170;47.856;10.956;2023-08-31T08:43:48;15.32;88.23
80779;SHT30;70170;47.856;10.956;2023-08-31T08:46:14;15.39;88.72
80779;SHT30;70170;47.856;10.956;2023-08-31T08:48:40;15.35;88.36
80779;SHT30;70170;47.856;10.956;2023-08-31T08:51:06;15.46;88.44
80779;SHT30;70170;47.856;10.956;2023-08-31T08:53:32;15.71;87.24
80779;SHT30;70170;47.856;10.956;2023-08-31T08:55:58;16.42;85.33
80779;SHT30;70170;47.856;10.956;2023-08-31T08:58:23;16.69;84.71
80779;SHT30;70170;47.856;10.956;2023-08-31T09:00:50;16.52;85.02
80779;SHT30;70170;47.856;10.956;2023-08-31T09:03:16;16.35;84.70
80779;SHT30;70170;47.856;10.956;2023-08-31T09:05:41;16.26;85.50
80779;SHT30;70170;47.856;10.956;2023-08-31T09:08:07;16.25;85.35
80779;SHT30;70170;47.856;10.956;2023-08-31T09:10:42;16.08;84.38
80779;SHT30;70170;47.856;10.956;2023-08-31T09:13:12;15.77;85.75
80779;SHT30;70170;47.856;10.956;2023-08-31T09:15:43;15.67;84.21
80779;SHT30;70170;47.856;10.956;2023-08-31T09:18:16;15.59;85.26
80779;SHT30;70170;47.856;10.956;2023-08-31T09:20:47;15.86;85.03
80779;SHT30;70170;47.856;10.956;2023-08-31T09:23:16;15.77;84.51
80779;SHT30;70170;47.856;10.956;2023-08-31T09:25:50;15.73;85.02
80779;SHT30;70170;47.856;10.956;2023-08-31T09:28:19;15.76;85.05
80779;SHT30;70170;47.856;10.956;2023-08-31T09:30:49;15.69;85.21
80779;SHT30;70170;47.856;10.956;2023-08-31T09:33:16;15.93;84.54
80779;SHT30;70170;47.856;10.956;2023-08-31T09:35:53;16.22;83.06
80779;SHT30;70170;47.856;10.956;2023-08-31T09:38:19;16.46;82.68
80779;SHT30;70170;47.856;10.956;2023-08-31T09:40:44;16.57;83.30
80779;SHT30;70170;47.856;10.956;2023-08-31T09:43:10;16.73;79.97
80779;SHT30;70170;47.856;10.956;2023-08-31T09:45:35;16.67;81.66
80779;SHT30;70170;47.856;10.956;2023-08-31T09:48:03;16.77;80.39
80779;SHT30;70170;47.856;10.956;2023-08-31T09:50:30;17.36;80.57
80779;SHT30;70170;47.856;10.956;2023-08-31T09:53:03;17.28;77.19
80779;SHT30;70170;47.856;10.956;2023-08-31T09:55:29;17.03;78.22
80779;SHT30;70170;47.856;10.956;2023-08-31T09:57:57;16.94;78.08
80779;SHT30;70170;47.856;10.956;2023-08-31T10:00:26;17.27;77.60
80779;SHT30;70170;47.856;10.956;2023-08-31T10:02:54;17.43;77.38
80779;SHT30;70170;47.856;10.956;2023-08-31T10:05:21;17.31;76.06
80779;SHT30;70170;47.856;10.956;2023-08-31T10:07:47;17.62;76.11
80779;SHT30;70170;47.856;10.956;2023-08-31T10:10:13;17.77;76.20
80779;SHT30;70170;47.856;10.956;2023-08-31T10:12:40;18.00;73.13
80779;SHT30;70170;47.856;10.956;2023-08-31T10:15:06;18.01;72.97
80779;SHT30;70170;47.856;10.956;2023-08-31T10:17:32;17.72;71.80
80779;SHT30;70170;47.856;10.956;2023-08-31T10:19:57;17.46;76.11
80779;SHT30;70170;47.856;10.956;2023-08-31T10:22:23;17.17;75.05
80779;SHT30;70170;47.856;10.956;2023-08-31T10:25:01;17.28;76.05
80779;SHT30;70170;47.856;10.956;2023-08-31T10:27:36;17.07;73.97
80779;SHT30;70170;47.856;10.956;2023-08-31T10:32:39;17.42;75.50
80779;SHT30;70170;47.856;10.956;2023-08-31T10:35:07;17.04;74.97
80779;SHT30;70170;47.856;10.956;2023-08-31T10:37:32;17.07;74.74
80779;SHT30;70170;47.856;10.956;2023-08-31T10:40:10;17.15;75.59
80779;SHT30;70170;47.856;10.956;2023-08-31T10:42:46;17.43;75.67
80779;SHT30;70170;47.856;10.956;2023-08-31T10:45:13;17.40;74.47
80779;SHT30;70170;47.856;10.956;2023-08-31T10:47:40;17.22;75.35
80779;SHT30;70170;47.856;10.956;2023-08-31T10:50:22;17.53;73.78
80779;SHT30;70170;47.856;10.956;2023-08-31T10:52:48;17.49;74.22
80779;SHT30;70170;47.856;10.956;2023-08-31T10:55:14;17.52;75.35
80779;SHT30;70170;47.856;10.956;2023-08-31T10:57:40;17.87;73.73
80779;SHT30;70170;47.856;10.956;2023-08-31T11:00:07;18.35;72.43
80779;SHT30;70170;47.856;10.956;2023-08-31T11:05:12;18.77;70.47
80779;SHT30;70170;47.856;10.956;2023-08-31T11:07:40;18.49;70.49
80779;SHT30;70170;47.856;10.956;2023-08-31T11:12:39;18.22;72.86
80779;SHT30;70170;47.856;10.956;2023-08-31T11:15:06;18.46;71.46
80779;SHT30;70170;47.856;10.956;2023-08-31T11:17:32;18.34;69.05
80779;SHT30;70170;47.856;10.956;2023-08-31T11:19:58;17.97;68.80
80779;SHT30;70170;47.856;10.956;2023-08-31T11:22:23;17.93;69.02
80779;SHT30;70170;47.856;10.956;2023-08-31T11:24:49;18.10;69.12
80779;SHT30;70170;47.856;10.956;2023-08-31T11:27:19;18.15;69.49
80779;SHT30;70170;47.856;10.956;2023-08-31T11:29:44;18.65;67.91
80779;SHT30;70170;47.856;10.956;2023-08-31T11:32:10;18.53;67.66
80779;SHT30;70170;47.856;10.956;2023-08-31T11:34:40;18.56;67.81
80779;SHT30;70170;47.856;10.956;2023-08-31T11:37:06;18.91;67.13
80779;SHT30;70170;47.856;10.956;2023-08-31T11:39:31;19.45;67.04
80779;SHT30;70170;47.856;10.956;2023-08-31T11:41:57;19.55;66.91
80779;SHT30;70170;47.856;10.956;2023-08-31T11:44:22;19.97;65.96
80779;SHT30;70170;47.856;10.956;2023-08-31T11:46:48;19.84;65.78
80779;SHT30;70170;47.856;10.956;2023-08-31T11:49:16;19.82;65.12
80779;SHT30;70170;47.856;10.956;2023-08-31T11:51:43;19.70;66.02
80779;SHT30;70170;47.856;10.956;2023-08-31T11:54:10;20.51;66.02
80779;SHT30;70170;47.856;10.956;2023-08-31T11:56:45;20.46;63.42
80779;SHT30;70170;47.856;10.956;2023-08-31T11:59:18;20.56;64.66
80779;SHT30;70170;47.856;10.956;2023-08-31T12:01:46;20.41;65.31
80779;SHT30;70170;47.856;10.956;2023-08-31T12:04:15;19.45;68.08
80779;SHT30;70170;47.856;10.956;2023-08-31T12:06:41;19.80;68.48
80779;SHT30;70170;47.856;10.956;2023-08-31T12:09:09;18.59;69.13
80779;SHT30;70170;47.856;10.956;2023-08-31T12:11:35;18.32;69.74
80779;SHT30;70170;47.856;10.956;2023-08-31T12:14:17;18.79;68.58
80779;SHT30;70170;47.856;10.956;2023-08-31T12:16:42;19.39;68.32
80779;SHT30;70170;47.856;10.956;2023-08-31T12:19:09;19.14;67.61
80779;SHT30;70170;47.856;10.956;2023-08-31T12:21:34;19.51;67.41
80779;SHT30;70170;47.856;10.956;2023-08-31T12:24:00;19.98;67.78
80779;SHT30;70170;47.856;10.956;2023-08-31T12:26:28;19.86;67.75
80779;SHT30;70170;47.856;10.956;2023-08-31T12:28:54;19.63;66.96
80779;SHT30;70170;47.856;10.956;2023-08-31T12:31:19;19.66;66.99
80779;SHT30;70170;47.856;10.956;2023-08-31T12:33:45;19.91;66.97
80779;SHT30;70170;47.856;10.956;2023-08-31T12:36:10;19.59;67.28
80779;SHT30;70170;47.856;10.956;2023-08-31T12:38:35;19.84;66.54
80779;SHT30;70170;47.856;10.956;2023-08-31T12:41:01;19.14;67.63
80779;SHT30;70170;47.856;10.956;2023-08-31T12:43:28;19.51;69.01
80779;SHT30;70170;47.856;10.956;2023-08-31T12:45:54;19.79;66.54
80779;SHT30;70170;47.856;10.956;2023-08-31T12:48:20;18.84;68.81
80779;SHT30;70170;47.856;10.956;2023-08-31T12:50:45;18.66;70.52
80779;SHT30;70170;47.856;10.956;2023-08-31T12:53:10;18.84;68.67
80779;SHT30;70170;47.856;10.956;2023-08-31T12:55:36;19.17;68.64
80779;SHT30;70170;47.856;10.956;2023-08-31T12:58:02;19.07;68.44
80779;SHT30;70170;47.856;10.956;2023-08-31T13:00:27;19.08;70.22
80779;SHT30;70170;47.856;10.956;2023-08-31T13:02:53;18.42;69.84
80779;SHT30;70170;47.856;10.956;2023-08-31T13:05:18;19.12;68.15
80779;SHT30;70170;47.856;10.956;2023-08-31T13:07:45;18.79;69.84
80779;SHT30;70170;47.856;10.956;2023-08-31T13:10:10;18.39;71.22
80779;SHT30;70170;47.856;10.956;2023-08-31T13:12:36;17.93;73.04
80779;SHT30;70170;47.856;10.956;2023-08-31T13:15:02;17.61;72.79
80779;SHT30;70170;47.856;10.956;2023-08-31T13:17:28;17.86;72.79
80779;SHT30;70170;47.856;10.956;2023-08-31T13:19:54;18.42;70.35
80779;SHT30;70170;47.856;10.956;2023-08-31T13:22:21;18.36;69.89
80779;SHT30;70170;47.856;10.956;2023-08-31T13:24:46;17.76;71.12
80779;SHT30;70170;47.856;10.956;2023-08-31T13:27:11;18.00;72.40
80779;SHT30;70170;47.856;10.956;2023-08-31T13:29:38;18.51;70.70
80779;SHT30;70170;47.856;10.956;2023-08-31T13:32:04;18.35;69.50
80779;SHT30;70170;47.856;10.956;2023-08-31T13:34:30;18.49;69.18
80779;SHT30;70170;47.856;10.956;2023-08-31T13:36:55;19.08;68.85
80779;SHT30;70170;47.856;10.956;2023-08-31T13:39:21;18.79;68.98
80779;SHT30;70170;47.856;10.956;2023-08-31T13:41:47;18.99;68.33
80779;SHT30;70170;47.856;10.956;2023-08-31T13:44:13;18.96;69.06
80779;SHT30;70170;47.856;10.956;2023-08-31T13:46:38;19.04;68.43
80779;SHT30;70170;47.856;10.956;2023-08-31T13:49:04;19.11;69.29
80779;SHT30;70170;47.856;10.956;2023-08-31T13:51:29;20.65;66.40
80779;SHT30;70170;47.856;10.956;2023-08-31T13:53:55;22.06;60.30
80779;SHT30;70170;47.856;10.956;2023-08-31T13:56:20;21.85;61.21
80779;SHT30;70170;47.856;10.956;2023-08-31T13:58:46;21.00;62.54
80779;SHT30;70170;47.856;10.956;2023-08-31T14:01:11;20.04;65.33
80779;SHT30;70170;47.856;10.956;2023-08-31T14:03:38;19.17;65.12
80779;SHT30;70170;47.856;10.956;2023-08-31T14:06:03;19.08;66.44
80779;SHT30;70170;47.856;10.956;2023-08-31T14:08:29;19.28;65.57
80779;SHT30;70170;47.856;10.956;2023-08-31T14:10:54;19.11;67.94
80779;SHT30;70170;47.856;10.956;2023-08-31T14:13:20;19.03;67.88
80779;SHT30;70170;47.856;10.956;2023-08-31T14:15:46;19.00;69.02
80779;SHT30;70170;47.856;10.956;2023-08-31T14:18:12;18.80;68.31
80779;SHT30;70170;47.856;10.956;2023-08-31T14:20:38;18.39;69.60
80779;SHT30;70170;47.856;10.956;2023-08-31T14:23:04;18.42;70.15
80779;SHT30;70170;47.856;10.956;2023-08-31T14:25:36;18.42;70.25
80779;SHT30;70170;47.856;10.956;2023-08-31T14:28:02;17.91;70.04
80779;SHT30;70170;47.856;10.956;2023-08-31T14:30:28;18.53;69.43
80779;SHT30;70170;47.856;10.956;2023-08-31T14:32:53;18.24;69.03
80779;SHT30;70170;47.856;10.956;2023-08-31T14:35:18;18.41;69.18
80779;SHT30;70170;47.856;10.956;2023-08-31T14:37:44;18.42;69.50
80779;SHT30;70170;47.856;10.956;2023-08-31T14:40:09;18.84;68.78
80779;SHT30;70170;47.856;10.956;2023-08-31T14:42:36;19.29;67.89
80779;SHT30;70170;47.856;10.956;2023-08-31T14:45:01;19.74;67.27
80779;SHT30;70170;47.856;10.956;2023-08-31T14:47:27;20.04;67.95
80779;SHT30;70170;47.856;10.956;2023-08-31T14:49:52;21.07;64.51
80779;SHT30;70170;47.856;10.956;2023-08-31T14:52:17;21.20;63.38
80779;SHT30;70170;47.856;10.956;2023-08-31T14:54:42;20.87;62.79
80779;SHT30;70170;47.856;10.956;2023-08-31T14:57:08;20.18;64.70
80779;SHT30;70170;47.856;10.956;2023-08-31T14:59:33;19.54;65.61
80779;SHT30;70170;47.856;10.956;2023-08-31T15:01:58;19.32;65.34
80779;SHT30;70170;47.856;10.956;2023-08-31T15:04:26;19.19;67.10
80779;SHT30;70170;47.856;10.956;2023-08-31T15:06:53;18.55;67.19
80779;SHT30;70170;47.856;10.956;2023-08-31T15:09:18;18.24;67.87
80779;SHT30;70170;47.856;10.956;2023-08-31T15:11:44;17.90;68.59
80779;SHT30;70170;47.856;10.956;2023-08-31T15:14:11;18.07;68.74
80779;SHT30;70170;47.856;10.956;2023-08-31T15:16:36;17.89;69.11
80779;SHT30;70170;47.856;10.956;2023-08-31T15:19:02;17.62;69.12
80779;SHT30;70170;47.856;10.956;2023-08-31T15:21:28;17.36;70.24
80779;SHT30;70170;47.856;10.956;2023-08-31T15:23:53;17.32;71.18